createdAt,value
2022-12-12T00:01:22.721Z,-0.50
2022-12-12T00:03:50.262Z,-0.50
2022-12-12T00:06:17.121Z,-0.50
2022-12-12T00:08:43.941Z,-0.50
2022-12-12T00:11:10.857Z,-0.50
2022-12-12T00:13:37.857Z,-0.50
2022-12-12T00:16:06.697Z,-0.50
2022-12-12T00:18:33.891Z,-0.50
2022-12-12T00:21:00.530Z,-0.50
2022-12-12T00:23:27.221Z,-0.50
2022-12-12T00:26:00.454Z,-0.50
2022-12-12T00:28:28.225Z,-0.50
2022-12-12T00:30:55.734Z,-0.50
2022-12-12T00:33:22.448Z,-0.50
2022-12-12T00:35:53.624Z,-0.50
2022-12-12T00:38:22.671Z,-0.50
2022-12-12T00:40:50.038Z,-0.60
2022-12-12T00:43:16.859Z,-0.60
2022-12-12T00:45:43.476Z,-0.60
2022-12-12T00:48:10.387Z,-0.50
2022-12-12T00:50:37.089Z,-0.40
2022-12-12T00:53:03.824Z,-0.40
2022-12-12T00:55:30.482Z,-0.40
2022-12-12T00:57:57.292Z,-0.40
2022-12-12T01:00:24.032Z,-0.40
2022-12-12T01:02:50.939Z,-0.40
2022-12-12T01:05:18.439Z,-0.30
2022-12-12T01:07:45.334Z,-0.30
2022-12-12T01:10:12.057Z,-0.30
2022-12-12T01:12:38.880Z,-0.30
2022-12-12T01:15:07.857Z,-0.30
2022-12-12T01:17:37.799Z,-0.40
2022-12-12T01:20:07.447Z,-0.30
2022-12-12T01:22:34.232Z,-0.30
2022-12-12T01:25:01.236Z,-0.40
2022-12-12T01:27:28.122Z,-0.30
2022-12-12T01:29:56.195Z,-0.30
2022-12-12T01:32:22.943Z,-0.30
2022-12-12T01:34:49.554Z,-0.30
2022-12-12T01:37:16.339Z,-0.30
2022-12-12T01:39:43.680Z,-0.30
2022-12-12T01:42:14.199Z,-0.40
2022-12-12T01:44:47.631Z,-0.40
2022-12-12T01:47:16.991Z,-0.40
2022-12-12T01:49:47.836Z,-0.40
2022-12-12T01:52:19.120Z,-0.40
2022-12-12T01:54:49.398Z,-0.40
2022-12-12T01:57:25.831Z,-0.40
2022-12-12T01:59:52.587Z,-0.40
2022-12-12T02:02:19.324Z,-0.40
2022-12-12T02:04:46.176Z,-0.40
2022-12-12T02:07:12.946Z,-0.50
2022-12-12T02:09:40.096Z,-0.60
2022-12-12T02:12:07.056Z,-0.50
2022-12-12T02:14:38.187Z,-0.40
2022-12-12T02:17:26.634Z,-0.40
2022-12-12T02:20:12.294Z,-0.40
2022-12-12T02:22:50.645Z,-0.40
2022-12-12T02:25:35.081Z,-0.40
2022-12-12T02:28:20.582Z,-0.40
2022-12-12T02:31:11.656Z,-0.40
2022-12-12T02:33:49.382Z,-0.40
2022-12-12T02:36:27.910Z,-0.50
2022-12-12T02:39:29.677Z,-0.60
2022-12-12T02:42:02.849Z,-0.60
2022-12-12T02:44:41.528Z,-0.50
2022-12-12T02:47:16.713Z,-0.50
2022-12-12T02:49:46.426Z,-0.40
2022-12-12T02:52:13.566Z,-0.40
2022-12-12T02:54:40.522Z,-0.60
2022-12-12T02:57:24.181Z,-0.60
2022-12-12T02:59:57.943Z,-0.60
2022-12-12T03:02:39.691Z,-0.60
2022-12-12T03:05:53.277Z,-0.60
2022-12-12T03:08:55.351Z,-0.50
2022-12-12T03:11:34.322Z,-0.60
2022-12-12T03:14:25.310Z,-0.60
2022-12-12T03:17:23.973Z,-0.60
2022-12-12T03:20:16.490Z,-0.60
2022-12-12T03:23:03.058Z,-0.60
2022-12-12T03:25:41.360Z,-0.60
2022-12-12T03:28:32.849Z,-0.60
2022-12-12T03:31:05.289Z,-0.50
2022-12-12T03:33:45.281Z,-0.60
2022-12-12T03:36:23.476Z,-0.60
2022-12-12T03:38:57.408Z,-0.50
2022-12-12T03:41:34.088Z,-0.50
2022-12-12T03:44:41.339Z,-0.50
2022-12-12T03:47:19.062Z,-0.50
2022-12-12T03:49:50.528Z,-0.50
2022-12-12T03:52:56.655Z,-0.50
2022-12-12T03:55:38.903Z,-0.50
2022-12-12T03:58:19.968Z,-0.50
2022-12-12T04:00:50.007Z,-0.50
2022-12-12T04:03:19.723Z,-0.40
2022-12-12T04:06:13.147Z,-0.50
2022-12-12T04:09:00.398Z,-0.60
2022-12-12T04:11:52.739Z,-0.50
2022-12-12T04:14:41.786Z,-0.50
2022-12-12T04:17:15.651Z,-0.40
2022-12-12T04:20:14.664Z,-0.40
2022-12-12T04:23:16.989Z,-0.40
2022-12-12T04:26:23.855Z,-0.40
2022-12-12T04:29:19.314Z,-0.40
2022-12-12T04:31:52.070Z,-0.40
2022-12-12T04:34:36.040Z,-0.40
2022-12-12T04:37:05.710Z,-0.40
2022-12-12T04:39:33.101Z,-0.50
2022-12-12T04:42:01.842Z,-0.40
2022-12-12T04:44:32.078Z,-0.40
2022-12-12T04:47:01.067Z,-0.40
2022-12-12T04:49:30.557Z,-0.60
2022-12-12T04:52:06.478Z,-0.60
2022-12-12T04:54:48.319Z,-0.60
2022-12-12T04:57:25.415Z,-0.50
2022-12-12T04:59:52.399Z,-0.60
2022-12-12T05:02:40.139Z,-0.80
2022-12-12T05:05:13.065Z,-0.80
2022-12-12T05:07:42.789Z,-0.70
2022-12-12T05:10:15.243Z,-0.70
2022-12-12T05:12:49.742Z,-0.70
2022-12-12T05:15:19.485Z,-0.70
2022-12-12T05:17:47.721Z,-0.70
2022-12-12T05:20:15.812Z,-0.60
2022-12-12T05:22:42.464Z,-0.60
2022-12-12T05:25:09.681Z,-0.60
2022-12-12T05:27:36.479Z,-0.60
2022-12-12T05:30:03.508Z,-0.60
2022-12-12T05:32:30.196Z,-0.60
2022-12-12T05:34:56.848Z,-0.50
2022-12-12T05:37:23.536Z,-0.50
2022-12-12T05:39:50.166Z,-0.50
2022-12-12T05:42:16.863Z,-0.50
2022-12-12T05:44:43.544Z,-0.50
2022-12-12T05:47:10.243Z,-0.40
2022-12-12T05:49:36.963Z,-0.50
2022-12-12T05:52:03.659Z,-0.60
2022-12-12T05:54:30.954Z,-0.70
2022-12-12T05:56:57.597Z,-0.60
2022-12-12T05:59:27.118Z,-0.60
2022-12-12T06:01:54.018Z,-0.60
2022-12-12T06:04:20.750Z,-0.60
2022-12-12T06:06:47.512Z,-0.50
2022-12-12T06:09:14.159Z,-0.50
2022-12-12T06:11:40.884Z,-0.50
2022-12-12T06:14:07.557Z,-0.60
2022-12-12T06:16:35.460Z,-0.60
2022-12-12T06:19:02.431Z,-0.70
2022-12-12T06:21:29.060Z,-0.70
2022-12-12T06:23:56.302Z,-0.60
2022-12-12T06:26:22.996Z,-0.70
2022-12-12T06:28:50.095Z,-0.60
2022-12-12T06:31:17.043Z,-0.70
2022-12-12T06:33:44.458Z,-0.60
2022-12-12T06:36:19.127Z,-0.60
2022-12-12T06:38:45.903Z,-0.60
2022-12-12T06:41:14.849Z,-0.70
2022-12-12T06:43:42.260Z,-0.80
2022-12-12T06:46:14.300Z,-0.70
2022-12-12T06:48:41.033Z,-0.60
2022-12-12T06:51:09.387Z,-0.60
2022-12-12T06:53:37.194Z,-0.70
2022-12-12T06:56:09.740Z,-0.70
2022-12-12T06:58:36.971Z,-0.60
2022-12-12T07:01:04.048Z,-0.50
2022-12-12T07:03:30.984Z,-0.40
2022-12-12T07:05:57.724Z,-0.40
2022-12-12T07:08:24.437Z,-0.40
2022-12-12T07:10:51.163Z,-0.40
2022-12-12T07:13:17.842Z,-0.40
2022-12-12T07:15:46.387Z,-0.40
2022-12-12T07:18:14.403Z,-0.40
2022-12-12T07:20:42.738Z,-0.40
2022-12-12T07:23:10.964Z,-0.40
2022-12-12T07:25:39.129Z,-0.40
2022-12-12T07:28:05.913Z,-0.40
2022-12-12T07:30:32.530Z,-0.40
2022-12-12T07:32:59.347Z,-0.40
2022-12-12T07:35:26.338Z,-0.40
2022-12-12T07:37:53.053Z,-0.40
2022-12-12T07:40:19.782Z,-0.40
2022-12-12T07:42:46.456Z,-0.40
2022-12-12T07:45:18.113Z,-0.30
2022-12-12T07:47:45.640Z,-0.30
2022-12-12T07:50:12.767Z,-0.30
2022-12-12T07:52:39.605Z,-0.30
2022-12-12T07:55:06.697Z,-0.20
2022-12-12T07:57:33.522Z,-0.20
2022-12-12T08:00:00.294Z,-0.20
2022-12-12T08:02:26.929Z,-0.20
2022-12-12T08:04:53.623Z,-0.20
2022-12-12T08:07:20.281Z,-0.20
2022-12-12T08:09:47.017Z,-0.20
2022-12-12T08:12:13.700Z,-0.20
2022-12-12T08:14:40.499Z,-0.20
2022-12-12T08:17:07.245Z,-0.30
2022-12-12T08:19:34.010Z,-0.50
2022-12-12T08:22:00.754Z,-0.40
2022-12-12T08:24:28.666Z,-0.40
2022-12-12T08:26:55.632Z,-0.30
2022-12-12T08:29:22.390Z,-0.20
2022-12-12T08:31:49.124Z,-0.20
2022-12-12T08:34:15.799Z,-0.10
2022-12-12T08:36:43.636Z,-0.10
2022-12-12T08:39:13.359Z,-0.30
2022-12-12T08:41:40.979Z,-0.50
2022-12-12T08:44:10.073Z,-0.50
2022-12-12T08:46:37.037Z,-0.50
2022-12-12T08:49:03.847Z,-0.30
2022-12-12T08:51:30.633Z,-0.40
2022-12-12T08:53:57.322Z,-0.40
2022-12-12T08:56:24.414Z,-0.40
2022-12-12T08:58:51.374Z,-0.40
2022-12-12T09:01:23.899Z,-0.30
2022-12-12T09:03:52.807Z,-0.30
2022-12-12T09:06:20.037Z,-0.30
2022-12-12T09:08:47.102Z,-0.30
2022-12-12T09:11:14.466Z,-0.20
2022-12-12T09:13:41.599Z,-0.10
2022-12-12T09:16:09.030Z,-0.20
2022-12-12T09:18:36.820Z,-0.30
2022-12-12T09:21:04.401Z,-0.20
2022-12-12T09:23:31.170Z,-0.20
2022-12-12T09:25:58.073Z,-0.20
2022-12-12T09:28:26.396Z,-0.20
2022-12-12T09:30:53.265Z,-0.10
2022-12-12T09:33:20.401Z,-0.10
2022-12-12T09:35:47.560Z,-0.10
2022-12-12T09:38:15.276Z,-0.10
2022-12-12T09:41:04.372Z,0.00
2022-12-12T09:43:34.856Z,0.10
2022-12-12T09:46:02.755Z,0.00
2022-12-12T09:48:47.083Z,-0.10
2022-12-12T09:51:14.217Z,-0.20
2022-12-12T09:53:43.531Z,-0.20
2022-12-12T09:56:22.049Z,-0.30
2022-12-12T09:59:01.888Z,-0.30
2022-12-12T10:01:50.075Z,-0.20
2022-12-12T10:04:28.861Z,-0.20
2022-12-12T10:07:09.368Z,-0.30
2022-12-12T10:10:13.946Z,-0.30
2022-12-12T10:12:41.138Z,-0.20
2022-12-12T10:15:22.891Z,-0.20
2022-12-12T10:17:50.176Z,-0.20
2022-12-12T10:20:19.165Z,-0.20
2022-12-12T10:22:59.837Z,-0.10
2022-12-12T10:25:56.674Z,-0.10
2022-12-12T10:28:30.268Z,-0.10
2022-12-12T10:31:15.758Z,0.00
2022-12-12T10:34:01.883Z,0.10
2022-12-12T10:36:40.600Z,0.10
2022-12-12T10:39:39.125Z,0.10
2022-12-12T10:42:20.437Z,0.20
2022-12-12T10:45:14.920Z,0.20
2022-12-12T10:47:41.781Z,0.20
2022-12-12T10:50:32.498Z,0.20
2022-12-12T10:52:59.720Z,0.30
2022-12-12T10:55:44.317Z,0.40
2022-12-12T10:58:11.015Z,0.40
2022-12-12T11:00:41.332Z,0.40
2022-12-12T11:03:39.562Z,0.40
2022-12-12T11:06:11.395Z,0.40
2022-12-12T11:08:38.152Z,0.50
2022-12-12T11:11:21.356Z,0.40
2022-12-12T11:13:54.372Z,0.40
2022-12-12T11:16:29.942Z,0.40
2022-12-12T11:19:05.867Z,0.40
2022-12-12T11:21:37.130Z,0.50
2022-12-12T11:24:08.672Z,0.50
2022-12-12T11:26:50.111Z,0.60
2022-12-12T11:29:26.336Z,0.50
2022-12-12T11:31:53.700Z,0.50
2022-12-12T11:34:21.972Z,0.40
2022-12-12T11:36:49.002Z,0.40
2022-12-12T11:39:21.462Z,0.40
2022-12-12T11:42:02.016Z,0.40
2022-12-12T11:44:38.678Z,0.40
2022-12-12T11:47:27.560Z,0.60
2022-12-12T11:50:01.337Z,0.60
2022-12-12T11:52:32.452Z,0.50
2022-12-12T11:54:59.891Z,0.50
2022-12-12T11:57:47.872Z,0.40
2022-12-12T12:00:21.021Z,0.40
2022-12-12T12:02:58.814Z,0.40
2022-12-12T12:05:37.300Z,0.40
2022-12-12T12:08:22.229Z,0.30
2022-12-12T12:11:22.940Z,0.30
2022-12-12T12:14:20.178Z,0.40
2022-12-12T12:16:50.058Z,0.40
2022-12-12T12:19:35.974Z,0.40
2022-12-12T12:22:23.112Z,0.40
2022-12-12T12:25:34.788Z,0.60
2022-12-12T12:28:01.539Z,0.40
2022-12-12T12:30:59.674Z,0.30
2022-12-12T12:33:48.480Z,0.20
2022-12-12T12:36:22.788Z,0.20
2022-12-12T12:38:58.838Z,0.20
2022-12-12T12:41:47.379Z,0.10
2022-12-12T12:44:41.271Z,0.00
2022-12-12T12:47:17.441Z,0.00
2022-12-12T12:50:16.443Z,0.10
2022-12-12T12:53:14.135Z,0.10
2022-12-12T12:55:50.838Z,0.00
2022-12-12T12:58:32.257Z,0.00
2022-12-12T13:01:06.660Z,0.00
2022-12-12T13:03:42.530Z,0.10
2022-12-12T13:06:18.583Z,0.20
2022-12-12T13:08:58.552Z,0.20
2022-12-12T13:11:35.552Z,0.30
2022-12-12T13:14:18.738Z,0.30
2022-12-12T13:16:47.062Z,0.20
2022-12-12T13:19:38.044Z,0.20
2022-12-12T13:22:23.520Z,0.30
2022-12-12T13:25:09.206Z,0.20
2022-12-12T13:27:45.753Z,0.30
2022-12-12T13:30:33.010Z,0.20
2022-12-12T13:33:21.773Z,0.10
2022-12-12T13:35:51.487Z,0.10
2022-12-12T13:38:27.747Z,0.10
2022-12-12T13:41:01.133Z,0.10
2022-12-12T13:43:40.180Z,0.10
2022-12-12T13:46:21.693Z,0.00
2022-12-12T13:49:05.328Z,0.10
2022-12-12T13:51:34.873Z,0.10
2022-12-12T13:54:12.735Z,0.00
2022-12-12T13:56:42.905Z,-0.10
2022-12-12T13:59:27.488Z,-0.10
2022-12-12T14:02:17.894Z,-0.10
2022-12-12T14:04:46.864Z,-0.20
2022-12-12T14:07:18.441Z,-0.20
2022-12-12T14:09:52.711Z,-0.20
2022-12-12T14:12:31.773Z,-0.20
2022-12-12T14:14:58.931Z,-0.20
2022-12-12T14:17:28.959Z,-0.30
2022-12-12T14:19:58.816Z,-0.40
2022-12-12T14:22:48.719Z,-0.40
2022-12-12T14:25:15.365Z,-0.60
2022-12-12T14:28:03.298Z,-0.70
2022-12-12T14:30:55.574Z,-0.60
2022-12-12T14:33:53.372Z,-0.60
2022-12-12T14:36:34.590Z,-0.60
2022-12-12T14:39:19.265Z,-0.60
2022-12-12T14:41:47.703Z,-0.50
2022-12-12T14:44:35.529Z,-0.60
2022-12-12T14:47:08.752Z,-0.60
2022-12-12T14:49:35.786Z,-0.50
2022-12-12T14:52:02.989Z,-0.50
2022-12-12T14:54:31.550Z,-0.40
2022-12-12T14:56:59.151Z,-0.40
2022-12-12T14:59:29.568Z,-0.30
2022-12-12T15:02:01.081Z,-0.60
2022-12-12T15:04:31.267Z,-0.40
2022-12-12T15:07:00.275Z,-0.50
2022-12-12T15:09:39.922Z,-0.50
2022-12-12T15:12:14.403Z,-0.40
2022-12-12T15:14:52.659Z,-0.30
2022-12-12T15:17:21.417Z,-0.30
2022-12-12T15:19:51.928Z,-0.30
2022-12-12T15:22:23.734Z,-0.30
2022-12-12T15:24:50.994Z,-0.30
2022-12-12T15:27:47.077Z,-0.30
2022-12-12T15:30:36.849Z,-0.40
2022-12-12T15:33:14.726Z,-0.40
2022-12-12T15:35:57.929Z,-0.40
2022-12-12T15:38:28.668Z,-0.40
2022-12-12T15:40:58.987Z,-0.40
2022-12-12T15:43:28.892Z,-0.50
2022-12-12T15:46:02.516Z,-0.50
2022-12-12T15:48:29.150Z,-0.50
2022-12-12T15:50:57.229Z,-0.50
2022-12-12T15:53:46.938Z,-0.50
2022-12-12T15:56:19.555Z,-0.50
2022-12-12T15:58:51.923Z,-0.40
2022-12-12T16:01:29.030Z,-0.40
2022-12-12T16:04:00.191Z,-0.40
2022-12-12T16:06:28.501Z,-0.50
2022-12-12T16:09:02.772Z,-0.50
2022-12-12T16:11:47.161Z,-0.60
2022-12-12T16:14:38.937Z,-0.60
2022-12-12T16:17:19.944Z,-0.60
2022-12-12T16:20:04.771Z,-0.60
2022-12-12T16:22:40.244Z,-0.60
2022-12-12T16:25:12.862Z,-0.60
2022-12-12T16:27:39.581Z,-0.70
2022-12-12T16:30:06.602Z,-0.80
2022-12-12T16:32:33.450Z,-0.90
2022-12-12T16:35:00.120Z,-0.90
2022-12-12T16:37:27.532Z,-0.90
2022-12-12T16:39:54.162Z,-0.70
2022-12-12T16:42:21.929Z,-0.60
2022-12-12T16:44:48.552Z,-0.60
2022-12-12T16:47:20.944Z,-0.60
2022-12-12T16:49:48.241Z,-0.60
2022-12-12T16:52:16.945Z,-0.60
2022-12-12T16:54:52.552Z,-0.60
2022-12-12T16:57:20.433Z,-0.70
2022-12-12T16:59:47.082Z,-0.90
2022-12-12T17:02:22.400Z,-0.90
2022-12-12T17:04:50.141Z,-0.90
2022-12-12T17:07:16.898Z,-0.90
2022-12-12T17:09:43.599Z,-1.00
2022-12-12T17:12:12.851Z,-1.10
2022-12-12T17:14:39.600Z,-1.10
2022-12-12T17:17:06.608Z,-1.20
2022-12-12T17:19:33.797Z,-1.20
2022-12-12T17:22:00.637Z,-1.20
2022-12-12T17:24:27.728Z,-1.30
2022-12-12T17:26:54.456Z,-1.30
2022-12-12T17:29:22.478Z,-1.30
2022-12-12T17:31:49.519Z,-1.30
2022-12-12T17:34:16.368Z,-1.40
2022-12-12T17:36:43.032Z,-1.40
2022-12-12T17:39:10.983Z,-1.50
2022-12-12T17:41:37.827Z,-1.60
2022-12-12T17:44:04.638Z,-1.60
2022-12-12T17:46:31.330Z,-1.60
2022-12-12T17:48:59.321Z,-1.70
2022-12-12T17:51:26.023Z,-1.60
2022-12-12T17:53:53.001Z,-1.60
2022-12-12T17:56:24.752Z,-1.60
2022-12-12T17:58:52.396Z,-1.70
2022-12-12T18:01:31.516Z,-1.70
2022-12-12T18:03:59.789Z,-1.80
2022-12-12T18:06:29.030Z,-1.80
2022-12-12T18:08:56.994Z,-1.90
2022-12-12T18:11:27.277Z,-1.90
2022-12-12T18:13:57.414Z,-2.00
2022-12-12T18:16:24.887Z,-2.10
2022-12-12T18:18:52.223Z,-2.10
2022-12-12T18:24:09.546Z,-2.10
2022-12-12T18:26:36.284Z,-2.10
2022-12-12T18:29:05.587Z,-2.20
2022-12-12T18:31:33.275Z,-2.20
2022-12-12T18:34:00.610Z,-2.20
2022-12-12T18:36:29.317Z,-2.20
2022-12-12T18:38:57.419Z,-2.20
2022-12-12T18:41:24.709Z,-2.20
2022-12-12T18:43:51.338Z,-2.20
2022-12-12T18:46:19.754Z,-2.20
2022-12-12T18:48:47.854Z,-2.30
2022-12-12T18:51:16.296Z,-2.40
2022-12-12T18:53:43.618Z,-2.50
2022-12-12T18:56:13.717Z,-2.50
2022-12-12T18:58:40.719Z,-2.50
2022-12-12T19:01:13.331Z,-2.50
2022-12-12T19:03:41.899Z,-2.60
2022-12-12T19:06:15.388Z,-2.60
2022-12-12T19:08:42.862Z,-2.60
2022-12-12T19:11:11.026Z,-2.60
2022-12-12T19:13:38.036Z,-2.60
2022-12-12T19:16:11.292Z,-2.60
2022-12-12T19:18:38.765Z,-2.60
2022-12-12T19:21:12.041Z,-2.60
2022-12-12T19:23:39.437Z,-2.70
2022-12-12T19:26:09.474Z,-2.80
2022-12-12T19:28:36.869Z,-3.00
2022-12-12T19:31:08.662Z,-3.10
2022-12-12T19:33:36.163Z,-3.00
2022-12-12T19:36:29.723Z,-3.00
2022-12-12T19:38:58.662Z,-3.00
2022-12-12T19:41:25.565Z,-3.00
2022-12-12T19:43:53.626Z,-3.00
2022-12-12T19:46:23.160Z,-3.00
2022-12-12T19:48:53.326Z,-3.00
2022-12-12T19:51:21.698Z,-3.10
2022-12-12T19:53:53.871Z,-3.10
2022-12-12T19:56:24.116Z,-3.10
2022-12-12T19:58:51.363Z,-3.10
2022-12-12T20:01:20.529Z,-3.10
2022-12-12T20:03:51.814Z,-3.10
2022-12-12T20:06:19.426Z,-3.00
2022-12-12T20:08:46.813Z,-3.10
2022-12-12T20:11:16.758Z,-3.10
2022-12-12T20:13:48.063Z,-3.00
2022-12-12T20:16:17.953Z,-3.00
2022-12-12T20:18:47.245Z,-2.90
2022-12-12T20:21:36.264Z,-2.90
2022-12-12T20:24:01.021Z,-2.90
2022-12-12T20:26:31.233Z,-2.90
2022-12-12T20:29:01.917Z,-2.90
2022-12-12T20:31:32.538Z,-3.00
2022-12-12T20:34:00.333Z,-3.00
2022-12-12T20:36:34.891Z,-2.90
2022-12-12T20:39:05.114Z,-2.90
2022-12-12T20:41:36.523Z,-2.90
2022-12-12T20:44:04.114Z,-2.90
2022-12-12T20:46:36.777Z,-2.90
2022-12-12T20:49:09.182Z,-2.80
2022-12-12T20:54:24.782Z,-2.80
2022-12-12T20:56:53.252Z,-2.90
2022-12-12T20:59:19.947Z,-2.90
2022-12-12T21:01:47.325Z,-2.90
2022-12-12T21:04:14.375Z,-2.90
2022-12-12T21:06:48.048Z,-2.90
2022-12-12T21:09:22.680Z,-2.90
2022-12-12T21:11:49.870Z,-2.90
2022-12-12T21:14:16.764Z,-2.90
2022-12-12T21:16:43.529Z,-3.00
2022-12-12T21:19:13.001Z,-3.10
2022-12-12T21:21:41.999Z,-3.10
2022-12-12T21:24:09.825Z,-3.10
2022-12-12T21:26:36.499Z,-3.00
2022-12-12T21:29:04.880Z,-3.10
2022-12-12T21:31:34.163Z,-3.00
2022-12-12T21:34:01.258Z,-3.00
2022-12-12T21:36:29.042Z,-3.00
2022-12-12T21:38:57.307Z,-3.00
2022-12-12T21:41:24.448Z,-3.00
2022-12-12T21:43:51.321Z,-3.00
2022-12-12T21:46:24.731Z,-3.10
2022-12-12T21:49:11.420Z,-3.00
2022-12-12T21:51:39.697Z,-3.10
2022-12-12T21:54:08.169Z,-3.10
2022-12-12T21:56:35.229Z,-3.10
2022-12-12T21:59:03.472Z,-3.20
2022-12-12T22:01:32.360Z,-3.10
2022-12-12T22:04:00.103Z,-3.10
2022-12-12T22:06:29.449Z,-3.10
2022-12-12T22:08:57.394Z,-3.20
2022-12-12T22:11:41.652Z,-3.20
2022-12-12T22:14:11.680Z,-3.20
2022-12-12T22:16:39.450Z,-3.20
2022-12-12T22:19:09.615Z,-3.30
2022-12-12T22:21:36.512Z,-3.40
2022-12-12T22:24:03.821Z,-3.40
2022-12-12T22:26:33.525Z,-3.50
2022-12-12T22:29:02.471Z,-3.40
2022-12-12T22:31:32.192Z,-3.40
2022-12-12T22:34:04.956Z,-3.30
2022-12-12T22:36:34.254Z,-3.30
2022-12-12T22:39:01.741Z,-3.30
2022-12-12T22:41:29.889Z,-3.40
2022-12-12T22:44:02.352Z,-3.40
2022-12-12T22:46:29.162Z,-3.40
2022-12-12T22:48:59.133Z,-3.50
2022-12-12T22:51:29.043Z,-3.40
2022-12-12T22:53:56.872Z,-3.50
2022-12-12T22:56:23.655Z,-3.50
2022-12-12T22:58:50.382Z,-3.60
2022-12-12T23:01:22.337Z,-3.70
2022-12-12T23:03:49.058Z,-3.70
2022-12-12T23:06:21.059Z,-3.70
2022-12-12T23:08:53.524Z,-3.60
2022-12-12T23:11:21.770Z,-3.50
2022-12-12T23:13:48.650Z,-3.50
2022-12-12T23:16:18.093Z,-3.40
2022-12-12T23:18:46.446Z,-3.40
2022-12-12T23:21:17.477Z,-3.50
2022-12-12T23:23:45.359Z,-3.50
2022-12-12T23:26:14.522Z,-3.40
2022-12-12T23:28:41.312Z,-3.50
2022-12-12T23:31:13.511Z,-3.40
2022-12-12T23:33:40.696Z,-3.50
2022-12-12T23:36:11.824Z,-3.60
2022-12-12T23:38:39.293Z,-3.60
2022-12-12T23:41:12.173Z,-3.60
2022-12-12T23:43:39.747Z,-3.60
2022-12-12T23:46:08.840Z,-3.60
2022-12-12T23:48:35.872Z,-3.60
2022-12-12T23:51:02.543Z,-3.60
2022-12-12T23:53:32.532Z,-3.60
2022-12-12T23:56:04.206Z,-3.70
2022-12-12T23:58:30.897Z,-3.70
